createdAt,value
2022-09-12T00:01:17.845Z,4.63
2022-09-12T00:03:45.355Z,4.67
2022-09-12T00:06:22.569Z,3.50
2022-09-12T00:08:50.456Z,5.43
2022-09-12T00:11:18.495Z,3.90
2022-09-12T00:13:45.933Z,4.13
2022-09-12T00:16:18.182Z,5.10
2022-09-12T00:18:47.187Z,4.07
2022-09-12T00:21:17.520Z,4.13
2022-09-12T00:23:46.110Z,4.00
2022-09-12T00:26:14.568Z,4.33
2022-09-12T00:28:42.845Z,4.30
2022-09-12T00:31:12.913Z,4.20
2022-09-12T00:33:41.961Z,4.50
2022-09-12T00:36:11.673Z,3.90
2022-09-12T00:38:42.054Z,4.57
2022-09-12T00:41:15.836Z,4.90
2022-09-12T00:43:45.143Z,5.17
2022-09-12T00:46:24.606Z,5.30
2022-09-12T00:48:57.711Z,5.57
2022-09-12T00:51:25.606Z,6.07
2022-09-12T00:53:56.158Z,4.93
2022-09-12T00:56:24.970Z,4.97
2022-09-12T00:58:58.809Z,4.60
2022-09-12T01:01:30.453Z,4.93
2022-09-12T01:04:00.042Z,4.80
2022-09-12T01:06:31.146Z,6.90
2022-09-12T01:09:03.616Z,5.17
2022-09-12T01:11:32.465Z,6.60
2022-09-12T01:14:00.719Z,5.33
2022-09-12T01:16:28.681Z,5.30
2022-09-12T01:19:06.017Z,6.47
2022-09-12T01:21:46.836Z,5.50
2022-09-12T01:24:35.496Z,5.50
2022-09-12T01:27:18.426Z,5.00
2022-09-12T01:30:06.832Z,5.10
2022-09-12T01:32:48.647Z,4.80
2022-09-12T01:35:24.460Z,4.73
2022-09-12T01:38:00.303Z,5.30
2022-09-12T01:40:33.119Z,5.30
2022-09-12T01:43:10.316Z,5.10
2022-09-12T01:45:44.847Z,5.07
2022-09-12T01:48:17.551Z,4.00
2022-09-12T01:50:51.740Z,4.67
2022-09-12T01:53:23.839Z,4.30
2022-09-12T01:55:55.445Z,4.73
2022-09-12T01:58:28.425Z,4.10
2022-09-12T02:01:02.153Z,4.30
2022-09-12T02:03:34.904Z,4.20
2022-09-12T02:06:08.308Z,4.30
2022-09-12T02:08:42.281Z,4.67
2022-09-12T02:11:12.196Z,3.83
2022-09-12T02:13:43.389Z,4.37
2022-09-12T02:16:17.190Z,4.30
2022-09-12T02:18:51.508Z,4.47
2022-09-12T02:21:20.777Z,4.10
2022-09-12T02:23:54.581Z,3.20
2022-09-12T02:26:28.791Z,3.07
2022-09-12T02:28:57.577Z,3.90
2022-09-12T02:31:29.853Z,3.40
2022-09-12T02:34:10.957Z,4.07
2022-09-12T02:36:49.937Z,3.60
2022-09-12T02:39:19.987Z,3.10
2022-09-12T02:41:48.101Z,3.80
2022-09-12T02:44:15.730Z,3.00
2022-09-12T02:46:47.568Z,3.77
2022-09-12T02:49:17.489Z,4.10
2022-09-12T02:51:46.340Z,3.90
2022-09-12T02:54:15.648Z,3.20
2022-09-12T02:56:45.142Z,3.53
2022-09-12T02:59:16.249Z,3.78
2022-09-12T03:02:01.033Z,4.10
2022-09-12T03:04:45.860Z,4.53
2022-09-12T03:07:17.794Z,4.40
2022-09-12T03:09:51.476Z,4.40
2022-09-12T03:12:31.763Z,4.97
2022-09-12T03:15:13.608Z,3.77
2022-09-12T03:17:50.991Z,4.03
2022-09-12T03:20:31.595Z,4.00
2022-09-12T03:23:04.333Z,4.57
2022-09-12T03:25:37.057Z,3.40
2022-09-12T03:28:09.109Z,4.13
2022-09-12T03:30:40.593Z,3.43
2022-09-12T03:33:12.112Z,3.50
2022-09-12T03:35:41.064Z,3.50
2022-09-12T03:38:09.227Z,4.07
2022-09-12T03:40:36.883Z,3.40
2022-09-12T03:43:05.442Z,5.00
2022-09-12T03:45:33.139Z,3.93
2022-09-12T03:48:00.744Z,5.53
2022-09-12T03:50:28.350Z,4.27
2022-09-12T03:52:59.554Z,4.37
2022-09-12T03:55:27.569Z,3.70
2022-09-12T03:57:55.547Z,4.50
2022-09-12T04:00:24.174Z,3.40
2022-09-12T04:02:55.080Z,4.50
2022-09-12T04:05:22.581Z,4.07
2022-09-12T04:07:50.090Z,3.73
2022-09-12T04:10:18.883Z,3.70
2022-09-12T04:12:46.337Z,4.00
2022-09-12T04:15:13.821Z,3.40
2022-09-12T04:17:41.294Z,2.87
2022-09-12T04:20:09.292Z,3.87
2022-09-12T04:22:38.128Z,3.90
2022-09-12T04:25:06.378Z,4.33
2022-09-12T04:27:35.162Z,3.40
2022-09-12T04:30:03.139Z,3.80
2022-09-12T04:32:31.267Z,3.13
2022-09-12T04:34:58.851Z,3.90
2022-09-12T04:37:26.413Z,4.10
2022-09-12T04:39:57.645Z,3.43
2022-09-12T04:42:25.428Z,3.60
2022-09-12T04:44:54.534Z,3.17
2022-09-12T04:47:23.051Z,4.10
2022-09-12T04:49:51.417Z,3.33
2022-09-12T04:52:18.885Z,3.67
2022-09-12T04:54:46.344Z,3.70
2022-09-12T04:57:13.860Z,2.70
2022-09-12T04:59:41.431Z,3.57
2022-09-12T05:02:10.278Z,3.70
2022-09-12T05:04:37.744Z,3.67
2022-09-12T05:07:05.758Z,3.58
2022-09-12T05:09:33.231Z,3.40
2022-09-12T05:12:05.546Z,3.40
2022-09-12T05:14:34.069Z,4.87
2022-09-12T05:17:02.470Z,2.97
2022-09-12T05:19:32.094Z,3.63
2022-09-12T05:22:00.039Z,3.77
2022-09-12T05:24:27.895Z,3.05
2022-09-12T05:26:55.371Z,4.30
2022-09-12T05:29:22.852Z,3.17
2022-09-12T05:31:52.156Z,3.40
2022-09-12T05:34:19.906Z,5.50
2022-09-12T05:36:49.288Z,3.10
2022-09-12T05:39:16.981Z,3.70
2022-09-12T05:41:44.434Z,3.97
2022-09-12T05:44:14.006Z,3.67
2022-09-12T05:46:43.058Z,3.60
2022-09-12T05:49:12.164Z,4.30
2022-09-12T05:51:41.804Z,4.50
2022-09-12T05:54:13.642Z,4.70
2022-09-12T05:56:43.162Z,3.60
2022-09-12T05:59:13.469Z,4.10
2022-09-12T06:01:41.839Z,4.43
2022-09-12T06:04:09.823Z,4.73
2022-09-12T06:06:41.574Z,4.20
2022-09-12T06:09:10.483Z,6.00
2022-09-12T06:11:40.718Z,5.07
2022-09-12T06:14:09.190Z,4.30
2022-09-12T06:16:38.102Z,6.87
2022-09-12T06:19:08.011Z,5.23
2022-09-12T06:21:37.021Z,8.00
2022-09-12T06:24:04.805Z,8.77
2022-09-12T06:26:33.812Z,8.87
2022-09-12T06:29:02.170Z,8.60
2022-09-12T06:31:31.803Z,7.53
2022-09-12T06:34:01.564Z,9.00
2022-09-12T06:36:30.719Z,9.50
2022-09-12T06:39:00.801Z,9.87
2022-09-12T06:41:29.606Z,9.33
2022-09-12T06:43:59.321Z,10.80
2022-09-12T06:46:27.853Z,10.50
2022-09-12T06:48:57.362Z,11.57
2022-09-12T06:51:24.849Z,10.27
2022-09-12T06:53:52.354Z,12.20
2022-09-12T06:56:21.616Z,11.07
2022-09-12T06:58:50.688Z,12.20
2022-09-12T07:01:21.353Z,13.67
2022-09-12T07:03:51.001Z,12.50
2022-09-12T07:06:21.681Z,13.07
2022-09-12T07:08:49.485Z,13.67
2022-09-12T07:11:18.761Z,11.20
2022-09-12T07:13:48.012Z,12.10
2022-09-12T07:16:19.913Z,14.10
2022-09-12T07:18:53.253Z,12.97
2022-09-12T07:21:21.465Z,13.67
2022-09-12T07:23:49.682Z,14.80
2022-09-12T07:26:17.628Z,14.33
2022-09-12T07:28:45.634Z,15.23
2022-09-12T07:31:15.318Z,13.33
2022-09-12T07:33:43.969Z,15.00
2022-09-12T07:36:15.124Z,15.07
2022-09-12T07:38:44.267Z,16.30
2022-09-12T07:41:12.681Z,17.40
2022-09-12T07:43:40.169Z,14.23
2022-09-12T07:46:07.991Z,14.47
2022-09-12T07:48:35.631Z,15.80
2022-09-12T07:51:05.717Z,17.00
2022-09-12T07:53:36.880Z,15.60
2022-09-12T07:56:05.757Z,15.37
2022-09-12T07:58:36.359Z,14.80
2022-09-12T08:01:05.372Z,17.93
2022-09-12T08:03:32.865Z,15.50
2022-09-12T08:06:04.783Z,16.57
2022-09-12T08:08:33.656Z,15.50
2022-09-12T08:11:02.443Z,17.20
2022-09-12T08:13:31.985Z,16.07
2022-09-12T08:16:00.616Z,14.80
2022-09-12T08:18:28.850Z,14.47
2022-09-12T08:20:59.686Z,15.63
2022-09-12T08:23:28.734Z,17.67
2022-09-12T08:25:58.480Z,15.07
2022-09-12T08:28:26.643Z,16.23
2022-09-12T08:30:54.406Z,14.70
2022-09-12T08:33:22.144Z,14.13
2022-09-12T08:35:49.621Z,14.53
2022-09-12T08:38:17.065Z,13.90
2022-09-12T08:40:50.948Z,12.27
2022-09-12T08:43:34.871Z,12.40
2022-09-12T08:46:09.707Z,12.17
2022-09-12T08:48:38.253Z,11.70
2022-09-12T08:51:06.090Z,13.53
2022-09-12T08:53:37.204Z,12.97
2022-09-12T08:56:08.421Z,11.90
2022-09-12T08:58:41.788Z,14.10
2022-09-12T09:01:16.587Z,11.87
2022-09-12T09:04:10.489Z,11.63
2022-09-12T09:06:56.648Z,12.00
2022-09-12T09:09:36.481Z,10.43
2022-09-12T09:12:13.384Z,9.87
2022-09-12T09:15:21.313Z,8.37
2022-09-12T09:17:52.537Z,7.80
2022-09-12T09:20:28.476Z,7.23
2022-09-12T09:23:01.531Z,7.03
2022-09-12T09:25:42.104Z,6.33
2022-09-12T09:28:16.525Z,6.20
2022-09-12T09:30:45.966Z,6.50
2022-09-12T09:33:22.106Z,5.57
2022-09-12T09:35:56.573Z,5.90
2022-09-12T09:38:28.636Z,5.47
2022-09-12T09:41:09.094Z,5.03
2022-09-12T09:43:38.427Z,4.80
2022-09-12T09:46:07.824Z,4.57
2022-09-12T09:48:37.962Z,4.67
2022-09-12T09:51:09.167Z,5.07
2022-09-12T09:53:42.287Z,5.27
2022-09-12T09:56:16.505Z,4.57
2022-09-12T09:58:45.131Z,4.63
2022-09-12T10:01:17.681Z,5.20
2022-09-12T10:03:52.360Z,4.47
2022-09-12T10:06:26.942Z,4.73
2022-09-12T10:09:07.496Z,4.50
2022-09-12T10:11:35.010Z,5.37
2022-09-12T10:14:04.445Z,4.27
2022-09-12T10:16:35.094Z,4.30
2022-09-12T10:19:04.135Z,4.23
2022-09-12T10:21:35.162Z,4.50
2022-09-12T10:24:19.327Z,4.17
2022-09-12T10:26:56.434Z,4.90
2022-09-12T10:29:28.045Z,4.70
2022-09-12T10:31:59.622Z,4.03
2022-09-12T10:34:32.379Z,3.13
2022-09-12T10:37:03.279Z,4.23
2022-09-12T10:39:32.644Z,3.60
2022-09-12T10:42:00.178Z,3.50
2022-09-12T10:44:29.537Z,3.80
2022-09-12T10:46:59.805Z,3.67
2022-09-12T10:49:31.113Z,3.67
2022-09-12T10:52:18.106Z,4.07
2022-09-12T10:54:46.222Z,3.67
2022-09-12T10:57:49.796Z,3.50
2022-09-12T11:00:27.368Z,4.23
2022-09-12T11:03:07.781Z,3.80
2022-09-12T11:05:46.890Z,3.90
2022-09-12T11:08:42.462Z,4.00
2022-09-12T11:11:20.590Z,4.40
2022-09-12T11:13:58.871Z,2.87
2022-09-12T11:16:32.568Z,3.60
2022-09-12T11:19:18.381Z,4.60
2022-09-12T11:22:01.764Z,3.50
2022-09-12T11:24:46.266Z,3.00
2022-09-12T11:27:28.182Z,3.57
2022-09-12T11:30:00.033Z,3.37
2022-09-12T11:32:42.353Z,3.23
2022-09-12T11:35:19.508Z,3.40
2022-09-12T11:38:00.349Z,3.00
2022-09-12T11:40:33.505Z,3.13
2022-09-12T11:43:06.329Z,2.83
2022-09-12T11:45:40.694Z,2.70
2022-09-12T11:48:15.221Z,2.90
2022-09-12T11:50:44.096Z,2.70
2022-09-12T11:53:20.132Z,2.97
2022-09-12T11:55:55.372Z,2.07
2022-09-12T11:58:27.107Z,2.53
2022-09-12T12:00:57.146Z,2.30
2022-09-12T12:03:32.314Z,2.43
2022-09-12T12:06:05.747Z,2.80
2022-09-12T12:08:38.974Z,3.63
2022-09-12T12:11:08.855Z,2.97
2022-09-12T12:13:40.661Z,2.27
2022-09-12T12:16:13.745Z,2.90
2022-09-12T12:18:43.550Z,2.83
2022-09-12T12:21:35.096Z,3.73
2022-09-12T12:24:15.350Z,2.92
2022-09-12T12:26:56.588Z,1.80
2022-09-12T12:29:43.669Z,2.50
2022-09-12T12:32:26.147Z,2.37
2022-09-12T12:35:31.317Z,2.47
2022-09-12T12:38:00.528Z,1.93
2022-09-12T12:40:29.712Z,2.20
2022-09-12T12:43:19.727Z,2.20
2022-09-12T12:46:12.407Z,2.30
2022-09-12T12:49:11.854Z,2.03
2022-09-12T12:52:02.189Z,1.97
2022-09-12T12:54:50.618Z,2.93
2022-09-12T12:57:30.804Z,2.03
2022-09-12T13:00:03.445Z,1.60
2022-09-12T13:02:34.693Z,2.70
2022-09-12T13:05:06.761Z,2.27
2022-09-12T13:07:37.307Z,1.80
2022-09-12T13:10:09.008Z,1.90
2022-09-12T13:12:39.003Z,1.90
2022-09-12T13:15:45.368Z,2.30
2022-09-12T13:18:18.498Z,1.83
2022-09-12T13:20:52.177Z,2.13
2022-09-12T13:23:24.602Z,1.97
2022-09-12T13:25:58.817Z,1.83
2022-09-12T13:28:27.252Z,5.17
2022-09-12T13:31:04.083Z,2.23
2022-09-12T13:33:38.152Z,2.30
2022-09-12T13:36:21.297Z,2.00
2022-09-12T13:39:01.429Z,2.00
2022-09-12T13:41:45.726Z,2.30
2022-09-12T13:44:18.075Z,2.50
2022-09-12T13:46:46.141Z,2.10
2022-09-12T13:49:21.792Z,2.50
2022-09-12T13:51:59.353Z,2.10
2022-09-12T13:54:27.249Z,2.27
2022-09-12T13:56:56.380Z,1.90
2022-09-12T13:59:24.219Z,2.00
2022-09-12T14:01:51.746Z,2.43
2022-09-12T14:04:39.853Z,3.03
2022-09-12T14:07:14.047Z,2.10
2022-09-12T14:09:43.690Z,2.20
2022-09-12T14:12:22.066Z,2.70
2022-09-12T14:14:51.668Z,2.37
2022-09-12T14:17:24.473Z,2.37
2022-09-12T14:19:53.171Z,2.23
2022-09-12T14:22:20.818Z,2.43
2022-09-12T14:24:50.370Z,2.40
2022-09-12T14:27:20.723Z,2.50
2022-09-12T14:29:48.556Z,2.47
2022-09-12T14:32:23.747Z,2.50
2022-09-12T14:35:19.481Z,2.27
2022-09-12T14:37:50.445Z,1.60
2022-09-12T14:40:20.969Z,2.70
2022-09-12T14:42:52.583Z,2.50
2022-09-12T14:45:26.198Z,2.27
2022-09-12T14:47:54.439Z,2.23
2022-09-12T14:50:26.185Z,2.73
2022-09-12T14:53:08.195Z,2.35
2022-09-12T14:55:43.888Z,2.40
2022-09-12T14:58:26.476Z,2.17
2022-09-12T15:01:00.227Z,1.90
2022-09-12T15:03:31.029Z,2.10
2022-09-12T15:05:59.820Z,1.87
2022-09-12T15:08:27.876Z,2.00
2022-09-12T15:10:55.857Z,2.20
2022-09-12T15:13:27.913Z,1.53
2022-09-12T15:15:56.904Z,1.47
2022-09-12T15:18:26.293Z,2.00
2022-09-12T15:20:56.716Z,1.50
2022-09-12T15:23:34.915Z,2.07
2022-09-12T15:26:03.329Z,1.88
2022-09-12T15:28:32.819Z,1.90
2022-09-12T15:31:05.540Z,1.80
2022-09-12T15:33:33.076Z,2.10
2022-09-12T15:36:00.582Z,1.60
2022-09-12T15:38:28.032Z,1.60
2022-09-12T15:40:56.326Z,1.97
2022-09-12T15:43:26.114Z,1.83
2022-09-12T15:45:55.103Z,2.00
2022-09-12T15:48:22.584Z,1.70
2022-09-12T15:50:50.371Z,1.80
2022-09-12T15:53:18.484Z,1.70
2022-09-12T15:55:46.303Z,2.17
2022-09-12T15:58:14.082Z,1.67
2022-09-12T16:00:41.567Z,2.13
2022-09-12T16:03:21.983Z,2.10
2022-09-12T16:05:49.756Z,2.20
2022-09-12T16:08:17.234Z,2.07
2022-09-12T16:10:45.305Z,1.47
2022-09-12T16:13:12.923Z,2.20
2022-09-12T16:15:40.643Z,1.77
2022-09-12T16:18:08.198Z,1.80
2022-09-12T16:20:37.029Z,1.37
2022-09-12T16:23:04.521Z,2.00
2022-09-12T16:25:32.000Z,1.90
2022-09-12T16:28:01.399Z,2.27
2022-09-12T16:30:28.857Z,1.80
2022-09-12T16:32:56.352Z,2.00
2022-09-12T16:35:23.838Z,2.17
2022-09-12T16:37:52.695Z,1.70
2022-09-12T16:40:20.274Z,1.70
2022-09-12T16:42:47.805Z,1.70
2022-09-12T16:45:15.368Z,2.17
2022-09-12T16:47:42.910Z,1.90
2022-09-12T16:50:11.093Z,2.00
2022-09-12T16:52:38.587Z,2.08
2022-09-12T16:55:08.397Z,2.20
2022-09-12T16:57:35.888Z,2.43
2022-09-12T17:00:04.108Z,2.00
2022-09-12T17:02:31.625Z,1.90
2022-09-12T17:04:59.243Z,1.93
2022-09-12T17:07:26.762Z,1.93
2022-09-12T17:09:54.285Z,1.83
2022-09-12T17:12:23.932Z,2.00
2022-09-12T17:14:51.423Z,2.50
2022-09-12T17:17:18.872Z,2.00
2022-09-12T17:19:46.896Z,2.87
2022-09-12T17:22:16.192Z,3.20
2022-09-12T17:25:06.126Z,2.07
2022-09-12T17:27:35.271Z,3.90
2022-09-12T17:30:02.800Z,4.30
2022-09-12T17:32:30.347Z,3.23
2022-09-12T17:34:57.847Z,3.30
2022-09-12T17:37:25.743Z,4.50
2022-09-12T17:39:53.231Z,2.93
2022-09-12T17:42:22.511Z,3.93
2022-09-12T17:44:51.663Z,4.67
2022-09-12T17:47:19.254Z,4.27
2022-09-12T17:49:47.491Z,4.10
2022-09-12T17:52:14.967Z,4.20
2022-09-12T17:54:43.431Z,3.93
2022-09-12T17:57:10.951Z,3.50
2022-09-12T17:59:38.404Z,3.87
2022-09-12T18:02:14.093Z,4.10
2022-09-12T18:04:42.179Z,3.27
2022-09-12T18:07:09.788Z,3.50
2022-09-12T18:09:37.272Z,3.73
2022-09-12T18:12:05.256Z,3.60
2022-09-12T18:14:32.713Z,6.00
2022-09-12T18:17:00.408Z,4.40
2022-09-12T18:19:29.514Z,4.00
2022-09-12T18:21:57.751Z,3.47
2022-09-12T18:24:26.351Z,3.37
2022-09-12T18:26:56.493Z,3.30
2022-09-12T18:29:24.298Z,3.30
2022-09-12T18:31:52.243Z,3.73
2022-09-12T18:34:19.763Z,3.53
2022-09-12T18:36:50.499Z,4.00
2022-09-12T18:39:20.516Z,3.53
2022-09-12T18:41:50.153Z,4.10
2022-09-12T18:44:17.994Z,4.90
2022-09-12T18:46:45.592Z,3.60
2022-09-12T18:49:13.195Z,3.60
2022-09-12T18:51:41.735Z,5.10
2022-09-12T18:54:14.544Z,3.77
2022-09-12T18:56:43.819Z,3.00
2022-09-12T18:59:12.789Z,4.53
2022-09-12T19:01:40.775Z,3.40
2022-09-12T19:04:09.978Z,4.13
2022-09-12T19:06:38.849Z,2.60
2022-09-12T19:09:08.357Z,3.37
2022-09-12T19:11:39.421Z,2.80
2022-09-12T19:14:07.791Z,3.27
2022-09-12T19:16:36.017Z,4.83
2022-09-12T19:19:03.677Z,2.83
2022-09-12T19:21:35.329Z,2.63
2022-09-12T19:24:05.712Z,2.60
2022-09-12T19:26:34.914Z,2.83
2022-09-12T19:29:04.401Z,3.23
2022-09-12T19:31:32.959Z,3.07
2022-09-12T19:34:01.695Z,2.60
2022-09-12T19:36:46.802Z,2.90
2022-09-12T19:39:16.046Z,2.60
2022-09-12T19:41:43.779Z,3.60
2022-09-12T19:44:12.832Z,3.07
2022-09-12T19:46:40.535Z,2.97
2022-09-12T19:49:08.940Z,2.97
2022-09-12T19:51:36.835Z,3.03
2022-09-12T19:54:04.575Z,2.73
2022-09-12T19:56:32.086Z,2.57
2022-09-12T19:59:00.102Z,3.00
2022-09-12T20:01:29.594Z,3.23
2022-09-12T20:03:57.837Z,3.10
2022-09-12T20:06:25.892Z,3.17
2022-09-12T20:08:53.589Z,3.27
2022-09-12T20:11:23.505Z,2.63
2022-09-12T20:13:51.319Z,2.80
2022-09-12T20:16:22.605Z,2.90
2022-09-12T20:18:56.241Z,2.70
2022-09-12T20:21:30.964Z,2.40
2022-09-12T20:24:01.676Z,2.43
2022-09-12T20:26:29.247Z,2.50
2022-09-12T20:28:56.833Z,2.53
2022-09-12T20:31:25.366Z,2.73
2022-09-12T20:33:55.343Z,2.50
2022-09-12T20:36:23.245Z,2.90
2022-09-12T20:38:52.865Z,2.20
2022-09-12T20:41:22.622Z,2.70
2022-09-12T20:43:51.055Z,2.53
2022-09-12T20:46:21.845Z,2.60
2022-09-12T20:48:50.629Z,2.90
2022-09-12T20:51:20.159Z,2.77
2022-09-12T20:53:48.421Z,2.33
2022-09-12T20:56:17.382Z,2.50
2022-09-12T20:58:44.983Z,2.90
2022-09-12T21:01:15.728Z,2.90
2022-09-12T21:03:44.518Z,3.10
2022-09-12T21:06:13.621Z,2.53
2022-09-12T21:08:42.481Z,2.67
2022-09-12T21:11:10.534Z,2.77
2022-09-12T21:13:38.823Z,2.80
2022-09-12T21:16:08.625Z,2.53
2022-09-12T21:18:37.289Z,2.67
2022-09-12T21:21:06.108Z,3.00
2022-09-12T21:23:34.457Z,2.33
2022-09-12T21:26:03.835Z,2.83
2022-09-12T21:28:31.469Z,2.50
2022-09-12T21:30:58.991Z,2.50
2022-09-12T21:33:27.112Z,2.77
2022-09-12T21:35:54.613Z,2.70
2022-09-12T21:38:22.446Z,2.40
2022-09-12T21:40:49.931Z,3.10
2022-09-12T21:43:18.701Z,2.60
2022-09-12T21:45:46.204Z,2.67
2022-09-12T21:48:13.670Z,2.30
2022-09-12T21:50:41.129Z,2.50
2022-09-12T21:53:08.581Z,2.30
2022-09-12T21:55:36.030Z,2.57
2022-09-12T21:58:03.584Z,3.00
2022-09-12T22:00:32.447Z,3.30
2022-09-12T22:03:00.064Z,3.77
2022-09-12T22:05:31.532Z,2.37
2022-09-12T22:08:00.530Z,2.40
2022-09-12T22:10:28.289Z,3.33
2022-09-12T22:12:55.741Z,2.70
2022-09-12T22:15:40.173Z,2.60
2022-09-12T22:18:09.916Z,2.47
2022-09-12T22:20:37.340Z,2.77
2022-09-12T22:23:24.851Z,3.00
2022-09-12T22:25:55.165Z,2.53
2022-09-12T22:28:22.592Z,2.78
2022-09-12T22:30:50.655Z,3.03
2022-09-12T22:33:19.620Z,3.10
2022-09-12T22:35:47.403Z,3.07
2022-09-12T22:38:15.017Z,2.83
2022-09-12T22:40:42.919Z,3.10
2022-09-12T22:43:10.419Z,2.33
2022-09-12T22:45:40.939Z,2.60
2022-09-12T22:48:09.345Z,3.00
2022-09-12T22:50:38.467Z,2.17
2022-09-12T22:53:06.019Z,2.70
2022-09-12T22:55:33.724Z,2.90
2022-09-12T22:58:01.240Z,2.40
2022-09-12T23:00:29.650Z,2.57
2022-09-12T23:02:58.278Z,2.53
2022-09-12T23:05:25.954Z,2.43
2022-09-12T23:07:55.511Z,2.40
2022-09-12T23:10:22.985Z,2.50
2022-09-12T23:12:50.480Z,2.60
2022-09-12T23:15:18.170Z,2.40
2022-09-12T23:17:45.722Z,2.10
2022-09-12T23:20:13.430Z,2.80
2022-09-12T23:22:41.012Z,2.83
2022-09-12T23:25:10.537Z,2.70
2022-09-12T23:27:40.131Z,2.17
2022-09-12T23:30:09.338Z,2.80
2022-09-12T23:32:38.058Z,2.23
2022-09-12T23:35:06.349Z,2.57
2022-09-12T23:37:34.011Z,2.67
2022-09-12T23:40:01.740Z,2.63
2022-09-12T23:42:30.668Z,2.40
2022-09-12T23:44:58.213Z,2.03
2022-09-12T23:47:25.666Z,2.40
2022-09-12T23:49:53.160Z,2.40
2022-09-12T23:52:20.633Z,2.60
2022-09-12T23:54:48.087Z,2.50
2022-09-12T23:57:15.582Z,2.50
2022-09-12T23:59:44.413Z,2.47
